Garske, North Dakota
Current Conditions -  °F | °C
As of 10:55 AM on Monday 22 Dec 2014 (Local Time) from KDVL Reporting Station
Overcast Overcast  
Wind Chill: 25°   Ceiling: 300
Heat Index: 32°   Visibility: 4mi
Dew Point: 27°   Wind: 8mph
Humidity: 80%   Direction: 40°NE
Pressure: 29.51"   Gusts: NA
Location:  48.3263°N, 98.8756°W
Report Text: KDVL 221655Z AUTO 04007KT 4SM OVC003 00/M03 A2951 RMK AO1
Loading
Personal Weather Stations






























Interactive Weather Map New forecast layout! Learn more

10-Day Weather Forecast

Advertisements
Track Severe Weather on mobile